sensor_id;sensor_type;location;lat;lon;timestamp;P1;durP1;ratioP1;P2;durP2;ratioP2
35990;SDS011;22064;42.672;23.282;2022-11-11T00:00:50;44.50;;;23.27;;
35990;SDS011;22064;42.672;23.282;2022-11-11T00:03:41;45.92;;;23.55;;
35990;SDS011;22064;42.672;23.282;2022-11-11T00:06:26;42.58;;;22.85;;
35990;SDS011;22064;42.672;23.282;2022-11-11T00:09:10;42.97;;;23.30;;
35990;SDS011;22064;42.672;23.282;2022-11-11T00:11:54;44.50;;;23.85;;
35990;SDS011;22064;42.672;23.282;2022-11-11T00:14:38;45.20;;;24.05;;
35990;SDS011;22064;42.672;23.282;2022-11-11T00:17:22;48.67;;;23.90;;
35990;SDS011;22064;42.672;23.282;2022-11-11T00:20:25;45.75;;;23.58;;
35990;SDS011;22064;42.672;23.282;2022-11-11T00:23:28;45.53;;;22.92;;
35990;SDS011;22064;42.672;23.282;2022-11-11T00:26:30;51.28;;;24.17;;
35990;SDS011;22064;42.672;23.282;2022-11-11T00:29:16;47.38;;;24.90;;
35990;SDS011;22064;42.672;23.282;2022-11-11T00:32:00;47.13;;;23.80;;
35990;SDS011;22064;42.672;23.282;2022-11-11T00:35:04;47.72;;;25.20;;
35990;SDS011;22064;42.672;23.282;2022-11-11T00:38:08;47.33;;;23.90;;
35990;SDS011;22064;42.672;23.282;2022-11-11T00:40:53;52.97;;;26.23;;
35990;SDS011;22064;42.672;23.282;2022-11-11T00:43:37;47.40;;;25.15;;
35990;SDS011;22064;42.672;23.282;2022-11-11T00:46:20;48.95;;;25.95;;
35990;SDS011;22064;42.672;23.282;2022-11-11T00:49:23;48.65;;;26.17;;
35990;SDS011;22064;42.672;23.282;2022-11-11T00:52:26;48.22;;;24.48;;
35990;SDS011;22064;42.672;23.282;2022-11-11T00:55:10;45.40;;;24.13;;
35990;SDS011;22064;42.672;23.282;2022-11-11T00:57:55;46.08;;;23.05;;
35990;SDS011;22064;42.672;23.282;2022-11-11T01:00:39;47.38;;;23.98;;
35990;SDS011;22064;42.672;23.282;2022-11-11T01:03:23;46.42;;;24.77;;
35990;SDS011;22064;42.672;23.282;2022-11-11T01:06:08;48.83;;;25.75;;
35990;SDS011;22064;42.672;23.282;2022-11-11T01:08:55;46.67;;;24.55;;
35990;SDS011;22064;42.672;23.282;2022-11-11T01:11:39;49.22;;;25.40;;
35990;SDS011;22064;42.672;23.282;2022-11-11T01:14:23;46.60;;;24.02;;
35990;SDS011;22064;42.672;23.282;2022-11-11T01:17:07;45.15;;;24.52;;
35990;SDS011;22064;42.672;23.282;2022-11-11T01:19:52;48.20;;;25.13;;
35990;SDS011;22064;42.672;23.282;2022-11-11T01:22:36;45.33;;;23.92;;
35990;SDS011;22064;42.672;23.282;2022-11-11T01:25:19;49.90;;;26.90;;
35990;SDS011;22064;42.672;23.282;2022-11-11T01:28:05;59.00;;;25.67;;
35990;SDS011;22064;42.672;23.282;2022-11-11T01:30:49;50.08;;;27.02;;
35990;SDS011;22064;42.672;23.282;2022-11-11T01:33:33;50.53;;;25.63;;
35990;SDS011;22064;42.672;23.282;2022-11-11T01:36:18;50.13;;;26.20;;
35990;SDS011;22064;42.672;23.282;2022-11-11T01:39:07;51.72;;;26.60;;
35990;SDS011;22064;42.672;23.282;2022-11-11T01:41:51;50.75;;;26.05;;
35990;SDS011;22064;42.672;23.282;2022-11-11T01:44:40;48.13;;;26.02;;
35990;SDS011;22064;42.672;23.282;2022-11-11T01:47:26;50.92;;;27.65;;
35990;SDS011;22064;42.672;23.282;2022-11-11T01:50:30;55.85;;;26.90;;
35990;SDS011;22064;42.672;23.282;2022-11-11T01:53:14;58.17;;;28.52;;
35990;SDS011;22064;42.672;23.282;2022-11-11T01:55:58;53.92;;;27.63;;
35990;SDS011;22064;42.672;23.282;2022-11-11T01:58:44;55.00;;;28.80;;
35990;SDS011;22064;42.672;23.282;2022-11-11T02:01:29;58.03;;;29.45;;
35990;SDS011;22064;42.672;23.282;2022-11-11T02:04:13;58.38;;;29.80;;
35990;SDS011;22064;42.672;23.282;2022-11-11T02:07:16;58.10;;;30.33;;
35990;SDS011;22064;42.672;23.282;2022-11-11T02:10:02;60.92;;;30.50;;
35990;SDS011;22064;42.672;23.282;2022-11-11T02:12:50;59.97;;;31.13;;
35990;SDS011;22064;42.672;23.282;2022-11-11T02:15:53;59.28;;;30.15;;
35990;SDS011;22064;42.672;23.282;2022-11-11T02:18:37;60.22;;;30.67;;
35990;SDS011;22064;42.672;23.282;2022-11-11T02:21:29;59.47;;;29.33;;
35990;SDS011;22064;42.672;23.282;2022-11-11T02:24:18;62.38;;;32.13;;
35990;SDS011;22064;42.672;23.282;2022-11-11T02:27:03;58.67;;;31.13;;
35990;SDS011;22064;42.672;23.282;2022-11-11T02:29:51;63.78;;;31.65;;
35990;SDS011;22064;42.672;23.282;2022-11-11T02:32:38;57.50;;;28.92;;
35990;SDS011;22064;42.672;23.282;2022-11-11T02:35:29;60.70;;;30.75;;
35990;SDS011;22064;42.672;23.282;2022-11-11T02:38:21;60.08;;;31.73;;
35990;SDS011;22064;42.672;23.282;2022-11-11T02:41:06;60.55;;;31.05;;
35990;SDS011;22064;42.672;23.282;2022-11-11T02:44:09;57.05;;;29.75;;
35990;SDS011;22064;42.672;23.282;2022-11-11T02:46:53;60.17;;;30.38;;
35990;SDS011;22064;42.672;23.282;2022-11-11T02:49:36;57.45;;;29.00;;
35990;SDS011;22064;42.672;23.282;2022-11-11T02:52:20;54.92;;;28.65;;
35990;SDS011;22064;42.672;23.282;2022-11-11T02:55:05;53.45;;;27.00;;
35990;SDS011;22064;42.672;23.282;2022-11-11T02:57:49;52.17;;;27.50;;
35990;SDS011;22064;42.672;23.282;2022-11-11T03:00:33;52.28;;;26.63;;
35990;SDS011;22064;42.672;23.282;2022-11-11T03:03:18;53.90;;;28.70;;
35990;SDS011;22064;42.672;23.282;2022-11-11T03:06:01;53.47;;;28.48;;
35990;SDS011;22064;42.672;23.282;2022-11-11T03:08:46;54.67;;;28.48;;
35990;SDS011;22064;42.672;23.282;2022-11-11T03:11:30;52.78;;;28.23;;
35990;SDS011;22064;42.672;23.282;2022-11-11T03:14:14;48.90;;;26.15;;
35990;SDS011;22064;42.672;23.282;2022-11-11T03:16:58;50.00;;;26.52;;
35990;SDS011;22064;42.672;23.282;2022-11-11T03:20:01;52.20;;;25.92;;
35990;SDS011;22064;42.672;23.282;2022-11-11T03:23:04;50.25;;;26.17;;
35990;SDS011;22064;42.672;23.282;2022-11-11T03:25:53;52.00;;;27.95;;
35990;SDS011;22064;42.672;23.282;2022-11-11T03:28:37;50.83;;;28.13;;
35990;SDS011;22064;42.672;23.282;2022-11-11T03:31:21;50.38;;;27.38;;
35990;SDS011;22064;42.672;23.282;2022-11-11T03:34:05;50.83;;;27.77;;
35990;SDS011;22064;42.672;23.282;2022-11-11T03:37:02;53.85;;;28.13;;
35990;SDS011;22064;42.672;23.282;2022-11-11T03:40:10;56.30;;;27.35;;
35990;SDS011;22064;42.672;23.282;2022-11-11T03:42:54;53.13;;;29.45;;
35990;SDS011;22064;42.672;23.282;2022-11-11T03:45:39;52.03;;;29.48;;
35990;SDS011;22064;42.672;23.282;2022-11-11T03:48:24;50.35;;;28.20;;
35990;SDS011;22064;42.672;23.282;2022-11-11T03:51:10;52.60;;;28.13;;
35990;SDS011;22064;42.672;23.282;2022-11-11T03:53:54;53.03;;;29.73;;
35990;SDS011;22064;42.672;23.282;2022-11-11T03:56:38;58.58;;;31.63;;
35990;SDS011;22064;42.672;23.282;2022-11-11T03:59:22;56.70;;;31.52;;
35990;SDS011;22064;42.672;23.282;2022-11-11T04:02:07;58.80;;;31.60;;
35990;SDS011;22064;42.672;23.282;2022-11-11T04:05:13;61.22;;;31.30;;
35990;SDS011;22064;42.672;23.282;2022-11-11T04:08:17;60.95;;;32.60;;
35990;SDS011;22064;42.672;23.282;2022-11-11T04:11:23;63.10;;;32.92;;
35990;SDS011;22064;42.672;23.282;2022-11-11T04:14:10;58.78;;;32.03;;
35990;SDS011;22064;42.672;23.282;2022-11-11T04:17:15;60.58;;;31.60;;
35990;SDS011;22064;42.672;23.282;2022-11-11T04:19:59;60.53;;;31.30;;
35990;SDS011;22064;42.672;23.282;2022-11-11T04:23:02;56.30;;;32.15;;
35990;SDS011;22064;42.672;23.282;2022-11-11T04:25:46;58.95;;;31.20;;
35990;SDS011;22064;42.672;23.282;2022-11-11T04:28:33;52.20;;;27.83;;
35990;SDS011;22064;42.672;23.282;2022-11-11T04:31:36;54.83;;;30.63;;
35990;SDS011;22064;42.672;23.282;2022-11-11T04:34:41;45.33;;;24.60;;
35990;SDS011;22064;42.672;23.282;2022-11-11T04:37:26;48.17;;;27.48;;
35990;SDS011;22064;42.672;23.282;2022-11-11T04:40:14;49.80;;;27.60;;
35990;SDS011;22064;42.672;23.282;2022-11-11T04:43:17;50.45;;;27.02;;
35990;SDS011;22064;42.672;23.282;2022-11-11T04:46:01;51.55;;;27.42;;
35990;SDS011;22064;42.672;23.282;2022-11-11T04:48:45;47.20;;;25.73;;
35990;SDS011;22064;42.672;23.282;2022-11-11T04:51:29;49.58;;;27.58;;
35990;SDS011;22064;42.672;23.282;2022-11-11T04:54:33;48.88;;;26.08;;
35990;SDS011;22064;42.672;23.282;2022-11-11T04:57:38;46.50;;;24.98;;
35990;SDS011;22064;42.672;23.282;2022-11-11T05:00:29;45.15;;;24.67;;
35990;SDS011;22064;42.672;23.282;2022-11-11T05:03:14;45.05;;;24.38;;
35990;SDS011;22064;42.672;23.282;2022-11-11T05:05:59;48.28;;;25.92;;
35990;SDS011;22064;42.672;23.282;2022-11-11T05:09:02;46.45;;;25.40;;
35990;SDS011;22064;42.672;23.282;2022-11-11T05:11:46;49.83;;;26.73;;
35990;SDS011;22064;42.672;23.282;2022-11-11T05:14:30;42.65;;;22.83;;
35990;SDS011;22064;42.672;23.282;2022-11-11T05:17:33;46.92;;;25.35;;
35990;SDS011;22064;42.672;23.282;2022-11-11T05:20:36;45.95;;;25.38;;
35990;SDS011;22064;42.672;23.282;2022-11-11T05:23:39;50.03;;;26.20;;
35990;SDS011;22064;42.672;23.282;2022-11-11T05:26:42;45.30;;;23.77;;
35990;SDS011;22064;42.672;23.282;2022-11-11T05:29:26;47.28;;;26.25;;
35990;SDS011;22064;42.672;23.282;2022-11-11T05:32:10;48.95;;;27.00;;
35990;SDS011;22064;42.672;23.282;2022-11-11T05:35:00;49.58;;;26.92;;
35990;SDS011;22064;42.672;23.282;2022-11-11T05:37:44;47.05;;;25.42;;
35990;SDS011;22064;42.672;23.282;2022-11-11T05:40:51;50.22;;;26.65;;
35990;SDS011;22064;42.672;23.282;2022-11-11T05:43:37;52.15;;;26.15;;
35990;SDS011;22064;42.672;23.282;2022-11-11T05:46:21;50.33;;;26.73;;
35990;SDS011;22064;42.672;23.282;2022-11-11T05:49:05;50.85;;;27.92;;
35990;SDS011;22064;42.672;23.282;2022-11-11T05:51:58;52.70;;;28.95;;
35990;SDS011;22064;42.672;23.282;2022-11-11T05:54:43;55.90;;;29.20;;
35990;SDS011;22064;42.672;23.282;2022-11-11T05:57:27;52.13;;;28.65;;
35990;SDS011;22064;42.672;23.282;2022-11-11T06:00:12;55.45;;;29.55;;
35990;SDS011;22064;42.672;23.282;2022-11-11T06:03:03;50.67;;;27.08;;
35990;SDS011;22064;42.672;23.282;2022-11-11T06:05:48;52.70;;;28.17;;
35990;SDS011;22064;42.672;23.282;2022-11-11T06:08:32;55.28;;;29.17;;
35990;SDS011;22064;42.672;23.282;2022-11-11T06:11:17;59.00;;;30.42;;
35990;SDS011;22064;42.672;23.282;2022-11-11T06:14:01;55.33;;;31.15;;
35990;SDS011;22064;42.672;23.282;2022-11-11T06:16:45;57.60;;;32.65;;
35990;SDS011;22064;42.672;23.282;2022-11-11T06:19:29;57.92;;;30.35;;
35990;SDS011;22064;42.672;23.282;2022-11-11T06:22:13;52.10;;;28.23;;
35990;SDS011;22064;42.672;23.282;2022-11-11T06:24:57;57.15;;;30.45;;
35990;SDS011;22064;42.672;23.282;2022-11-11T06:28:01;54.13;;;28.23;;
35990;SDS011;22064;42.672;23.282;2022-11-11T06:30:45;57.95;;;31.92;;
35990;SDS011;22064;42.672;23.282;2022-11-11T06:33:29;57.35;;;30.30;;
35990;SDS011;22064;42.672;23.282;2022-11-11T06:36:15;52.50;;;28.05;;
35990;SDS011;22064;42.672;23.282;2022-11-11T06:39:00;52.22;;;27.85;;
35990;SDS011;22064;42.672;23.282;2022-11-11T06:41:44;56.35;;;30.00;;
35990;SDS011;22064;42.672;23.282;2022-11-11T06:44:28;56.60;;;29.63;;
35990;SDS011;22064;42.672;23.282;2022-11-11T06:47:12;56.92;;;29.75;;
35990;SDS011;22064;42.672;23.282;2022-11-11T06:49:56;54.08;;;28.45;;
35990;SDS011;22064;42.672;23.282;2022-11-11T06:52:40;51.88;;;28.58;;
35990;SDS011;22064;42.672;23.282;2022-11-11T06:55:24;53.35;;;28.75;;
35990;SDS011;22064;42.672;23.282;2022-11-11T06:58:11;57.67;;;29.63;;
35990;SDS011;22064;42.672;23.282;2022-11-11T07:01:02;57.25;;;28.02;;
35990;SDS011;22064;42.672;23.282;2022-11-11T07:03:47;57.72;;;28.98;;
35990;SDS011;22064;42.672;23.282;2022-11-11T07:06:31;52.50;;;28.25;;
35990;SDS011;22064;42.672;23.282;2022-11-11T07:09:15;55.10;;;28.88;;
35990;SDS011;22064;42.672;23.282;2022-11-11T07:11:59;51.78;;;26.45;;
35990;SDS011;22064;42.672;23.282;2022-11-11T07:14:44;53.90;;;27.45;;
35990;SDS011;22064;42.672;23.282;2022-11-11T07:17:28;56.15;;;26.73;;
35990;SDS011;22064;42.672;23.282;2022-11-11T07:20:12;48.58;;;24.60;;
35990;SDS011;22064;42.672;23.282;2022-11-11T07:22:55;48.65;;;25.75;;
35990;SDS011;22064;42.672;23.282;2022-11-11T07:25:39;48.85;;;24.95;;
35990;SDS011;22064;42.672;23.282;2022-11-11T07:28:23;49.72;;;25.35;;
35990;SDS011;22064;42.672;23.282;2022-11-11T07:31:08;45.88;;;23.40;;
35990;SDS011;22064;42.672;23.282;2022-11-11T07:33:52;48.97;;;24.48;;
35990;SDS011;22064;42.672;23.282;2022-11-11T07:36:37;49.78;;;24.45;;
35990;SDS011;22064;42.672;23.282;2022-11-11T07:39:21;45.30;;;23.75;;
35990;SDS011;22064;42.672;23.282;2022-11-11T07:42:05;44.97;;;23.13;;
35990;SDS011;22064;42.672;23.282;2022-11-11T07:44:49;42.95;;;22.38;;
35990;SDS011;22064;42.672;23.282;2022-11-11T07:47:33;42.30;;;22.58;;
35990;SDS011;22064;42.672;23.282;2022-11-11T07:50:20;44.63;;;21.10;;
35990;SDS011;22064;42.672;23.282;2022-11-11T07:53:03;49.10;;;22.42;;
35990;SDS011;22064;42.672;23.282;2022-11-11T07:55:47;46.35;;;21.98;;
35990;SDS011;22064;42.672;23.282;2022-11-11T07:58:31;44.00;;;21.05;;
35990;SDS011;22064;42.672;23.282;2022-11-11T08:01:15;42.28;;;20.95;;
35990;SDS011;22064;42.672;23.282;2022-11-11T08:04:00;38.90;;;19.23;;
35990;SDS011;22064;42.672;23.282;2022-11-11T08:06:44;36.90;;;20.38;;
35990;SDS011;22064;42.672;23.282;2022-11-11T08:09:28;37.95;;;19.60;;
35990;SDS011;22064;42.672;23.282;2022-11-11T08:12:12;38.53;;;18.88;;
35990;SDS011;22064;42.672;23.282;2022-11-11T08:15:15;34.03;;;17.60;;
35990;SDS011;22064;42.672;23.282;2022-11-11T08:17:59;37.70;;;19.88;;
35990;SDS011;22064;42.672;23.282;2022-11-11T08:20:43;35.53;;;18.80;;
35990;SDS011;22064;42.672;23.282;2022-11-11T08:23:27;37.28;;;18.58;;
35990;SDS011;22064;42.672;23.282;2022-11-11T08:26:18;38.47;;;17.95;;
35990;SDS011;22064;42.672;23.282;2022-11-11T08:29:04;34.55;;;17.42;;
35990;SDS011;22064;42.672;23.282;2022-11-11T08:31:48;33.78;;;18.02;;
35990;SDS011;22064;42.672;23.282;2022-11-11T08:34:36;36.47;;;18.15;;
35990;SDS011;22064;42.672;23.282;2022-11-11T08:37:19;40.30;;;20.35;;
35990;SDS011;22064;42.672;23.282;2022-11-11T08:40:03;36.58;;;18.73;;
35990;SDS011;22064;42.672;23.282;2022-11-11T08:42:48;37.35;;;17.92;;
35990;SDS011;22064;42.672;23.282;2022-11-11T08:45:32;32.88;;;17.98;;
35990;SDS011;22064;42.672;23.282;2022-11-11T08:48:16;31.60;;;17.02;;
35990;SDS011;22064;42.672;23.282;2022-11-11T08:51:00;30.70;;;15.45;;
35990;SDS011;22064;42.672;23.282;2022-11-11T08:53:45;29.95;;;14.77;;
35990;SDS011;22064;42.672;23.282;2022-11-11T08:56:29;31.33;;;16.10;;
35990;SDS011;22064;42.672;23.282;2022-11-11T08:59:13;29.33;;;14.90;;
35990;SDS011;22064;42.672;23.282;2022-11-11T09:01:57;29.92;;;15.70;;
35990;SDS011;22064;42.672;23.282;2022-11-11T09:04:41;31.65;;;16.15;;
35990;SDS011;22064;42.672;23.282;2022-11-11T09:07:25;33.40;;;14.73;;
35990;SDS011;22064;42.672;23.282;2022-11-11T09:10:09;34.53;;;15.95;;
35990;SDS011;22064;42.672;23.282;2022-11-11T09:12:57;28.48;;;15.43;;
35990;SDS011;22064;42.672;23.282;2022-11-11T09:15:41;30.35;;;14.75;;
35990;SDS011;22064;42.672;23.282;2022-11-11T09:18:25;28.83;;;14.35;;
35990;SDS011;22064;42.672;23.282;2022-11-11T09:21:10;31.67;;;14.80;;
35990;SDS011;22064;42.672;23.282;2022-11-11T09:23:54;27.88;;;13.93;;
35990;SDS011;22064;42.672;23.282;2022-11-11T09:26:38;26.55;;;13.40;;
35990;SDS011;22064;42.672;23.282;2022-11-11T09:29:22;23.88;;;13.07;;
35990;SDS011;22064;42.672;23.282;2022-11-11T09:32:06;26.38;;;12.65;;
35990;SDS011;22064;42.672;23.282;2022-11-11T09:34:50;23.65;;;13.02;;
35990;SDS011;22064;42.672;23.282;2022-11-11T09:37:34;24.60;;;12.30;;
35990;SDS011;22064;42.672;23.282;2022-11-11T09:40:18;22.50;;;10.82;;
35990;SDS011;22064;42.672;23.282;2022-11-11T09:52:20;24.30;;;11.27;;
35990;SDS011;22064;42.672;23.282;2022-11-11T09:55:22;23.38;;;12.43;;
35990;SDS011;22064;42.672;23.282;2022-11-11T10:01:03;22.02;;;11.00;;
35990;SDS011;22064;42.672;23.282;2022-11-11T10:04:01;21.95;;;11.25;;
35990;SDS011;22064;42.672;23.282;2022-11-11T10:06:56;19.05;;;9.98;;
35990;SDS011;22064;42.672;23.282;2022-11-11T10:09:48;20.17;;;11.15;;
35990;SDS011;22064;42.672;23.282;2022-11-11T10:12:46;18.95;;;9.85;;
35990;SDS011;22064;42.672;23.282;2022-11-11T10:15:38;19.02;;;9.77;;
35990;SDS011;22064;42.672;23.282;2022-11-11T10:21:20;19.30;;;10.40;;
35990;SDS011;22064;42.672;23.282;2022-11-11T10:24:16;18.13;;;9.52;;
35990;SDS011;22064;42.672;23.282;2022-11-11T10:27:27;19.63;;;9.90;;
35990;SDS011;22064;42.672;23.282;2022-11-11T10:33:11;22.85;;;10.45;;
35990;SDS011;22064;42.672;23.282;2022-11-11T10:36:02;19.88;;;10.40;;
35990;SDS011;22064;42.672;23.282;2022-11-11T10:39:00;19.70;;;10.55;;
35990;SDS011;22064;42.672;23.282;2022-11-11T10:41:47;20.10;;;10.65;;
35990;SDS011;22064;42.672;23.282;2022-11-11T10:44:33;21.88;;;10.60;;
35990;SDS011;22064;42.672;23.282;2022-11-11T10:50:42;16.27;;;7.85;;
35990;SDS011;22064;42.672;23.282;2022-11-11T10:57:04;16.67;;;9.02;;
35990;SDS011;22064;42.672;23.282;2022-11-11T10:59:59;16.85;;;8.27;;
35990;SDS011;22064;42.672;23.282;2022-11-11T11:05:58;17.67;;;8.23;;
35990;SDS011;22064;42.672;23.282;2022-11-11T11:08:53;16.42;;;8.10;;
35990;SDS011;22064;42.672;23.282;2022-11-11T11:11:44;18.02;;;8.98;;
35990;SDS011;22064;42.672;23.282;2022-11-11T11:14:35;17.83;;;7.80;;
35990;SDS011;22064;42.672;23.282;2022-11-11T11:17:23;18.98;;;8.80;;
35990;SDS011;22064;42.672;23.282;2022-11-11T11:20:19;16.90;;;8.15;;
35990;SDS011;22064;42.672;23.282;2022-11-11T11:23:04;19.85;;;9.40;;
35990;SDS011;22064;42.672;23.282;2022-11-11T11:25:52;14.90;;;7.15;;
35990;SDS011;22064;42.672;23.282;2022-11-11T11:28:53;14.80;;;6.80;;
35990;SDS011;22064;42.672;23.282;2022-11-11T11:31:41;11.77;;;6.50;;
35990;SDS011;22064;42.672;23.282;2022-11-11T11:34:49;12.57;;;5.75;;
35990;SDS011;22064;42.672;23.282;2022-11-11T11:37:48;13.48;;;6.32;;
35990;SDS011;22064;42.672;23.282;2022-11-11T11:40:46;15.27;;;6.57;;
35990;SDS011;22064;42.672;23.282;2022-11-11T11:43:38;14.23;;;6.55;;
35990;SDS011;22064;42.672;23.282;2022-11-11T11:46:28;15.60;;;6.25;;
35990;SDS011;22064;42.672;23.282;2022-11-11T11:49:28;13.52;;;6.72;;
35990;SDS011;22064;42.672;23.282;2022-11-11T11:52:31;12.50;;;6.38;;
35990;SDS011;22064;42.672;23.282;2022-11-11T11:58:50;12.18;;;6.53;;
35990;SDS011;22064;42.672;23.282;2022-11-11T12:01:52;13.50;;;6.68;;
35990;SDS011;22064;42.672;23.282;2022-11-11T12:14:22;13.93;;;6.28;;
35990;SDS011;22064;42.672;23.282;2022-11-11T12:26:06;14.02;;;5.88;;
35990;SDS011;22064;42.672;23.282;2022-11-11T12:35:47;12.95;;;5.97;;
35990;SDS011;22064;42.672;23.282;2022-11-11T12:41:25;12.85;;;6.40;;
35990;SDS011;22064;42.672;23.282;2022-11-11T12:44:11;13.27;;;6.43;;
35990;SDS011;22064;42.672;23.282;2022-11-11T12:47:46;12.27;;;6.68;;
35990;SDS011;22064;42.672;23.282;2022-11-11T12:53:07;12.68;;;6.18;;
35990;SDS011;22064;42.672;23.282;2022-11-11T13:10:53;22.50;;;9.15;;
35990;SDS011;22064;42.672;23.282;2022-11-11T13:16:49;13.15;;;6.65;;
35990;SDS011;22064;42.672;23.282;2022-11-11T13:22:28;11.32;;;5.88;;
35990;SDS011;22064;42.672;23.282;2022-11-11T13:25:14;11.45;;;6.20;;
35990;SDS011;22064;42.672;23.282;2022-11-11T13:28:05;13.82;;;6.40;;
35990;SDS011;22064;42.672;23.282;2022-11-11T13:33:49;14.95;;;6.18;;
35990;SDS011;22064;42.672;23.282;2022-11-11T13:36:42;22.10;;;6.90;;
35990;SDS011;22064;42.672;23.282;2022-11-11T13:39:30;17.35;;;6.90;;
35990;SDS011;22064;42.672;23.282;2022-11-11T13:42:21;17.92;;;7.30;;
35990;SDS011;22064;42.672;23.282;2022-11-11T13:45:18;14.20;;;7.03;;
35990;SDS011;22064;42.672;23.282;2022-11-11T13:48:31;19.25;;;7.38;;
35990;SDS011;22064;42.672;23.282;2022-11-11T13:51:24;18.48;;;8.77;;
35990;SDS011;22064;42.672;23.282;2022-11-11T13:54:24;21.25;;;9.18;;
35990;SDS011;22064;42.672;23.282;2022-11-11T13:57:30;22.23;;;9.30;;
35990;SDS011;22064;42.672;23.282;2022-11-11T14:08:56;19.05;;;8.40;;
35990;SDS011;22064;42.672;23.282;2022-11-11T14:11:41;20.15;;;8.35;;
35990;SDS011;22064;42.672;23.282;2022-11-11T14:17:15;18.38;;;8.98;;
35990;SDS011;22064;42.672;23.282;2022-11-11T14:28:51;20.05;;;9.18;;
35990;SDS011;22064;42.672;23.282;2022-11-11T14:31:42;21.98;;;10.07;;
35990;SDS011;22064;42.672;23.282;2022-11-11T14:34:48;22.10;;;10.32;;
35990;SDS011;22064;42.672;23.282;2022-11-11T14:40:39;28.00;;;12.32;;
35990;SDS011;22064;42.672;23.282;2022-11-11T14:43:34;29.00;;;12.68;;
35990;SDS011;22064;42.672;23.282;2022-11-11T14:46:21;28.75;;;12.73;;
35990;SDS011;22064;42.672;23.282;2022-11-11T14:49:06;30.10;;;14.35;;
35990;SDS011;22064;42.672;23.282;2022-11-11T14:51:51;27.80;;;13.52;;
35990;SDS011;22064;42.672;23.282;2022-11-11T14:57:48;32.30;;;14.40;;
35990;SDS011;22064;42.672;23.282;2022-11-11T15:03:36;30.70;;;14.85;;
35990;SDS011;22064;42.672;23.282;2022-11-11T15:06:34;31.33;;;15.27;;
35990;SDS011;22064;42.672;23.282;2022-11-11T15:15:44;32.22;;;15.63;;
35990;SDS011;22064;42.672;23.282;2022-11-11T15:21:35;30.60;;;14.73;;
35990;SDS011;22064;42.672;23.282;2022-11-11T15:30:22;31.67;;;14.27;;
35990;SDS011;22064;42.672;23.282;2022-11-11T15:33:24;28.08;;;13.32;;
35990;SDS011;22064;42.672;23.282;2022-11-11T15:36:25;29.40;;;12.18;;
35990;SDS011;22064;42.672;23.282;2022-11-11T15:39:21;27.95;;;13.20;;
35990;SDS011;22064;42.672;23.282;2022-11-11T15:42:12;31.23;;;13.95;;
35990;SDS011;22064;42.672;23.282;2022-11-11T15:48:02;31.95;;;15.13;;
35990;SDS011;22064;42.672;23.282;2022-11-11T15:50:46;31.17;;;15.77;;
35990;SDS011;22064;42.672;23.282;2022-11-11T15:53:31;34.00;;;16.17;;
35990;SDS011;22064;42.672;23.282;2022-11-11T15:56:28;35.53;;;16.48;;
35990;SDS011;22064;42.672;23.282;2022-11-11T15:59:23;31.08;;;16.63;;
35990;SDS011;22064;42.672;23.282;2022-11-11T16:02:21;35.10;;;15.10;;
35990;SDS011;22064;42.672;23.282;2022-11-11T16:05:13;36.67;;;16.73;;
35990;SDS011;22064;42.672;23.282;2022-11-11T16:08:02;35.65;;;17.85;;
35990;SDS011;22064;42.672;23.282;2022-11-11T16:10:57;34.05;;;16.35;;
35990;SDS011;22064;42.672;23.282;2022-11-11T16:13:47;35.80;;;17.65;;
35990;SDS011;22064;42.672;23.282;2022-11-11T16:16:36;34.60;;;16.92;;
35990;SDS011;22064;42.672;23.282;2022-11-11T16:19:24;30.92;;;15.50;;
35990;SDS011;22064;42.672;23.282;2022-11-11T16:22:27;33.35;;;15.50;;
35990;SDS011;22064;42.672;23.282;2022-11-11T16:25:16;37.25;;;16.00;;
35990;SDS011;22064;42.672;23.282;2022-11-11T16:28:04;33.63;;;15.68;;
35990;SDS011;22064;42.672;23.282;2022-11-11T16:30:48;31.77;;;16.08;;
35990;SDS011;22064;42.672;23.282;2022-11-11T16:33:33;31.92;;;16.25;;
35990;SDS011;22064;42.672;23.282;2022-11-11T16:36:17;31.38;;;15.27;;
35990;SDS011;22064;42.672;23.282;2022-11-11T16:39:20;32.15;;;14.73;;
35990;SDS011;22064;42.672;23.282;2022-11-11T16:42:17;33.90;;;16.15;;
35990;SDS011;22064;42.672;23.282;2022-11-11T16:45:20;30.02;;;16.08;;
35990;SDS011;22064;42.672;23.282;2022-11-11T16:48:12;33.53;;;15.60;;
35990;SDS011;22064;42.672;23.282;2022-11-11T16:51:36;31.13;;;15.75;;
35990;SDS011;22064;42.672;23.282;2022-11-11T16:54:22;30.00;;;14.65;;
35990;SDS011;22064;42.672;23.282;2022-11-11T16:57:09;33.15;;;14.70;;
35990;SDS011;22064;42.672;23.282;2022-11-11T17:00:04;31.38;;;16.30;;
35990;SDS011;22064;42.672;23.282;2022-11-11T17:06:00;34.92;;;16.65;;
35990;SDS011;22064;42.672;23.282;2022-11-11T17:08:47;31.80;;;15.48;;
35990;SDS011;22064;42.672;23.282;2022-11-11T17:14:21;32.53;;;15.68;;
35990;SDS011;22064;42.672;23.282;2022-11-11T17:17:06;32.95;;;16.48;;
35990;SDS011;22064;42.672;23.282;2022-11-11T17:19:52;34.50;;;16.17;;
35990;SDS011;22064;42.672;23.282;2022-11-11T17:22:49;31.30;;;16.35;;
35990;SDS011;22064;42.672;23.282;2022-11-11T17:25:34;37.65;;;17.20;;
35990;SDS011;22064;42.672;23.282;2022-11-11T17:28:18;33.50;;;16.55;;
35990;SDS011;22064;42.672;23.282;2022-11-11T17:31:06;34.65;;;17.13;;
35990;SDS011;22064;42.672;23.282;2022-11-11T17:33:52;35.85;;;16.45;;
35990;SDS011;22064;42.672;23.282;2022-11-11T17:36:36;33.30;;;16.75;;
35990;SDS011;22064;42.672;23.282;2022-11-11T17:39:20;32.97;;;17.33;;
35990;SDS011;22064;42.672;23.282;2022-11-11T17:42:04;36.42;;;17.67;;
35990;SDS011;22064;42.672;23.282;2022-11-11T17:44:48;31.98;;;16.15;;
35990;SDS011;22064;42.672;23.282;2022-11-11T17:47:31;32.90;;;16.88;;
35990;SDS011;22064;42.672;23.282;2022-11-11T17:50:15;42.92;;;18.45;;
35990;SDS011;22064;42.672;23.282;2022-11-11T17:52:59;33.55;;;15.90;;
35990;SDS011;22064;42.672;23.282;2022-11-11T17:55:43;35.40;;;16.98;;
35990;SDS011;22064;42.672;23.282;2022-11-11T17:58:27;37.00;;;18.08;;
35990;SDS011;22064;42.672;23.282;2022-11-11T18:01:13;33.88;;;16.83;;
35990;SDS011;22064;42.672;23.282;2022-11-11T18:03:58;35.92;;;18.00;;
35990;SDS011;22064;42.672;23.282;2022-11-11T18:06:42;35.63;;;18.45;;
35990;SDS011;22064;42.672;23.282;2022-11-11T18:09:26;35.88;;;18.65;;
35990;SDS011;22064;42.672;23.282;2022-11-11T18:12:10;34.53;;;17.23;;
35990;SDS011;22064;42.672;23.282;2022-11-11T18:14:54;37.83;;;18.45;;
35990;SDS011;22064;42.672;23.282;2022-11-11T18:17:38;34.65;;;17.75;;
35990;SDS011;22064;42.672;23.282;2022-11-11T18:20:22;37.33;;;18.23;;
35990;SDS011;22064;42.672;23.282;2022-11-11T18:23:06;35.67;;;18.02;;
35990;SDS011;22064;42.672;23.282;2022-11-11T18:25:53;37.88;;;18.70;;
35990;SDS011;22064;42.672;23.282;2022-11-11T18:28:40;34.58;;;17.58;;
35990;SDS011;22064;42.672;23.282;2022-11-11T18:31:25;34.72;;;18.52;;
35990;SDS011;22064;42.672;23.282;2022-11-11T18:34:08;36.58;;;19.02;;
35990;SDS011;22064;42.672;23.282;2022-11-11T18:36:53;36.75;;;18.50;;